sensor_id;sensor_type;location;lat;lon;timestamp;pressure;altitude;pressure_sealevel;temperature;humidity
62789;BME280;66401;42.016;21.454;2023-11-22T00:00:02;97567.75;;;6.73;97.96
62789;BME280;66401;42.016;21.454;2023-11-22T00:02:28;97569.16;;;6.75;96.03
62789;BME280;66401;42.016;21.454;2023-11-22T00:04:55;97567.13;;;6.71;96.49
62789;BME280;66401;42.016;21.454;2023-11-22T00:07:20;97566.03;;;6.58;96.62
62789;BME280;66401;42.016;21.454;2023-11-22T00:09:47;97552.59;;;6.70;96.97
62789;BME280;66401;42.016;21.454;2023-11-22T00:12:13;97541.63;;;6.68;96.58
62789;BME280;66401;42.016;21.454;2023-11-22T00:14:38;97545.81;;;6.47;97.11
62789;BME280;66401;42.016;21.454;2023-11-22T00:17:04;97553.72;;;6.46;97.03
62789;BME280;66401;42.016;21.454;2023-11-22T00:19:30;97571.97;;;6.23;98.60
62789;BME280;66401;42.016;21.454;2023-11-22T00:21:56;97566.84;;;6.08;99.56
62789;BME280;66401;42.016;21.454;2023-11-22T00:24:21;97571.69;;;6.32;98.64
62789;BME280;66401;42.016;21.454;2023-11-22T00:26:48;97572.03;;;6.44;98.20
62789;BME280;66401;42.016;21.454;2023-11-22T00:29:13;97580.03;;;6.49;97.10
62789;BME280;66401;42.016;21.454;2023-11-22T00:31:39;97576.84;;;6.47;97.18
62789;BME280;66401;42.016;21.454;2023-11-22T00:34:05;97584.72;;;6.39;98.87
62789;BME280;66401;42.016;21.454;2023-11-22T00:36:31;97573.09;;;6.35;98.95
62789;BME280;66401;42.016;21.454;2023-11-22T00:38:57;97566.72;;;6.31;98.52
62789;BME280;66401;42.016;21.454;2023-11-22T00:41:23;97568.81;;;6.42;98.77
62789;BME280;66401;42.016;21.454;2023-11-22T00:43:48;97570.22;;;6.45;98.86
62789;BME280;66401;42.016;21.454;2023-11-22T00:46:13;97566.94;;;6.51;98.43
62789;BME280;66401;42.016;21.454;2023-11-22T00:48:40;97536.84;;;6.28;98.96
62789;BME280;66401;42.016;21.454;2023-11-22T00:51:05;97558.97;;;6.52;98.87
62789;BME280;66401;42.016;21.454;2023-11-22T00:53:35;97560.28;;;6.63;97.69
62789;BME280;66401;42.016;21.454;2023-11-22T00:56:02;97559.47;;;6.63;97.73
62789;BME280;66401;42.016;21.454;2023-11-22T00:58:27;97562.34;;;6.68;97.23
62789;BME280;66401;42.016;21.454;2023-11-22T01:00:53;97550.19;;;6.47;98.32
62789;BME280;66401;42.016;21.454;2023-11-22T01:03:18;97563.97;;;6.54;98.70
62789;BME280;66401;42.016;21.454;2023-11-22T01:05:44;97545.81;;;6.47;99.43
62789;BME280;66401;42.016;21.454;2023-11-22T01:08:12;97536.66;;;6.30;99.08
62789;BME280;66401;42.016;21.454;2023-11-22T01:10:39;97550.69;;;6.57;97.96
62789;BME280;66401;42.016;21.454;2023-11-22T01:13:04;97534.41;;;6.63;97.70
62789;BME280;66401;42.016;21.454;2023-11-22T01:15:30;97543.06;;;6.55;97.91
62789;BME280;66401;42.016;21.454;2023-11-22T01:17:55;97532.38;;;6.58;97.85
62789;BME280;66401;42.016;21.454;2023-11-22T01:20:21;97546.03;;;6.52;97.97
62789;BME280;66401;42.016;21.454;2023-11-22T01:22:48;97507.53;;;6.43;97.96
62789;BME280;66401;42.016;21.454;2023-11-22T01:25:15;97527.00;;;6.39;99.70
62789;BME280;66401;42.016;21.454;2023-11-22T01:27:40;97525.72;;;6.49;99.10
62789;BME280;66401;42.016;21.454;2023-11-22T01:30:06;97524.72;;;6.50;98.67
62789;BME280;66401;42.016;21.454;2023-11-22T01:32:34;97523.63;;;6.59;97.79
62789;BME280;66401;42.016;21.454;2023-11-22T01:35:01;97522.38;;;6.34;98.59
62789;BME280;66401;42.016;21.454;2023-11-22T01:37:26;97514.91;;;6.24;99.26
62789;BME280;66401;42.016;21.454;2023-11-22T01:39:52;97498.47;;;6.32;98.87
62789;BME280;66401;42.016;21.454;2023-11-22T01:42:19;97508.94;;;6.24;99.32
62789;BME280;66401;42.016;21.454;2023-11-22T01:44:45;97515.84;;;6.38;98.92
62789;BME280;66401;42.016;21.454;2023-11-22T01:47:13;97519.06;;;6.40;99.58
62789;BME280;66401;42.016;21.454;2023-11-22T01:49:39;97531.13;;;6.54;98.58
62789;BME280;66401;42.016;21.454;2023-11-22T01:52:05;97520.44;;;6.57;97.88
62789;BME280;66401;42.016;21.454;2023-11-22T01:54:31;97523.03;;;6.57;98.02
62789;BME280;66401;42.016;21.454;2023-11-22T01:56:57;97523.66;;;6.45;98.80
62789;BME280;66401;42.016;21.454;2023-11-22T01:59:22;97513.66;;;6.56;99.05
62789;BME280;66401;42.016;21.454;2023-11-22T02:01:48;97494.00;;;6.41;99.48
62789;BME280;66401;42.016;21.454;2023-11-22T02:04:14;97516.28;;;6.42;99.49
62789;BME280;66401;42.016;21.454;2023-11-22T02:06:40;97519.63;;;6.57;99.41
62789;BME280;66401;42.016;21.454;2023-11-22T02:09:06;97514.31;;;6.44;100.00
62789;BME280;66401;42.016;21.454;2023-11-22T02:11:32;97527.13;;;6.52;99.16
62789;BME280;66401;42.016;21.454;2023-11-22T02:13:58;97526.59;;;6.56;99.31
62789;BME280;66401;42.016;21.454;2023-11-22T02:16:23;97531.13;;;6.54;99.20
62789;BME280;66401;42.016;21.454;2023-11-22T02:18:49;97523.63;;;6.59;98.40
62789;BME280;66401;42.016;21.454;2023-11-22T02:21:18;97522.06;;;6.65;97.80
62789;BME280;66401;42.016;21.454;2023-11-22T02:23:43;97524.72;;;6.50;100.00
62789;BME280;66401;42.016;21.454;2023-11-22T02:26:09;97524.97;;;6.55;99.43
62789;BME280;66401;42.016;21.454;2023-11-22T02:28:34;97523.19;;;6.56;99.57
62789;BME280;66401;42.016;21.454;2023-11-22T02:31:00;97515.47;;;6.41;99.82
62789;BME280;66401;42.016;21.454;2023-11-22T02:33:25;97515.72;;;6.46;99.41
62789;BME280;66401;42.016;21.454;2023-11-22T02:35:51;97512.78;;;6.49;99.66
62789;BME280;66401;42.016;21.454;2023-11-22T02:38:16;97508.41;;;6.50;99.13
62789;BME280;66401;42.016;21.454;2023-11-22T02:40:43;97520.94;;;6.68;99.41
62789;BME280;66401;42.016;21.454;2023-11-22T02:43:09;97511.31;;;6.62;100.00
62789;BME280;66401;42.016;21.454;2023-11-22T02:45:36;97520.34;;;6.72;98.68
62789;BME280;66401;42.016;21.454;2023-11-22T02:48:02;97522.63;;;6.82;97.47
62789;BME280;66401;42.016;21.454;2023-11-22T02:50:29;97528.25;;;6.85;97.53
62789;BME280;66401;42.016;21.454;2023-11-22T02:52:54;97518.44;;;6.81;97.78
62789;BME280;66401;42.016;21.454;2023-11-22T02:55:20;97505.09;;;6.77;97.21
62789;BME280;66401;42.016;21.454;2023-11-22T02:57:45;97515.13;;;6.87;97.93
62789;BME280;66401;42.016;21.454;2023-11-22T03:00:11;97509.56;;;6.90;96.74
62789;BME280;66401;42.016;21.454;2023-11-22T03:02:39;97516.41;;;6.98;96.32
62789;BME280;66401;42.016;21.454;2023-11-22T03:05:10;97509.25;;;7.00;96.05
62789;BME280;66401;42.016;21.454;2023-11-22T03:07:36;97504.06;;;7.00;96.28
62789;BME280;66401;42.016;21.454;2023-11-22T03:10:03;97473.97;;;6.71;96.49
62789;BME280;66401;42.016;21.454;2023-11-22T03:12:28;97519.59;;;7.00;96.07
62789;BME280;66401;42.016;21.454;2023-11-22T03:14:54;97515.03;;;7.02;96.22
62789;BME280;66401;42.016;21.454;2023-11-22T03:17:26;97517.41;;;6.97;96.15
62789;BME280;66401;42.016;21.454;2023-11-22T03:19:54;97532.75;;;6.98;96.55
62789;BME280;66401;42.016;21.454;2023-11-22T03:22:22;97536.31;;;6.97;96.61
62789;BME280;66401;42.016;21.454;2023-11-22T03:24:49;97532.88;;;6.90;97.24
62789;BME280;66401;42.016;21.454;2023-11-22T03:27:14;97513.53;;;6.86;97.48
62789;BME280;66401;42.016;21.454;2023-11-22T03:29:40;97503.19;;;6.86;97.63
62789;BME280;66401;42.016;21.454;2023-11-22T03:32:06;97520.34;;;6.94;96.49
62789;BME280;66401;42.016;21.454;2023-11-22T03:34:31;97519.19;;;6.96;96.66
62789;BME280;66401;42.016;21.454;2023-11-22T03:36:57;97512.75;;;6.92;96.81
62789;BME280;66401;42.016;21.454;2023-11-22T03:39:23;97505.75;;;6.86;96.92
62789;BME280;66401;42.016;21.454;2023-11-22T03:41:48;97522.50;;;6.90;97.36
62789;BME280;66401;42.016;21.454;2023-11-22T03:44:16;97522.09;;;6.86;97.75
62789;BME280;66401;42.016;21.454;2023-11-22T03:46:41;97516.47;;;6.83;97.80
62789;BME280;66401;42.016;21.454;2023-11-22T03:49:07;97536.81;;;6.86;98.39
62789;BME280;66401;42.016;21.454;2023-11-22T03:51:34;97528.25;;;6.85;98.10
62789;BME280;66401;42.016;21.454;2023-11-22T03:54:01;97528.06;;;6.87;98.23
62789;BME280;66401;42.016;21.454;2023-11-22T03:56:28;97518.63;;;6.79;98.36
62789;BME280;66401;42.016;21.454;2023-11-22T03:58:53;97539.28;;;6.73;99.26
62789;BME280;66401;42.016;21.454;2023-11-22T04:01:19;97531.25;;;6.46;100.00
62789;BME280;66401;42.016;21.454;2023-11-22T04:03:46;97529.53;;;6.53;99.46
62789;BME280;66401;42.016;21.454;2023-11-22T04:06:15;97537.56;;;6.58;100.00
62789;BME280;66401;42.016;21.454;2023-11-22T04:08:42;97554.81;;;6.73;99.30
62789;BME280;66401;42.016;21.454;2023-11-22T04:11:09;97548.50;;;6.60;100.00
62789;BME280;66401;42.016;21.454;2023-11-22T04:13:35;97561.34;;;6.69;100.00
62789;BME280;66401;42.016;21.454;2023-11-22T04:16:01;97564.28;;;6.66;100.00
62789;BME280;66401;42.016;21.454;2023-11-22T04:18:26;97579.34;;;6.77;100.00
62789;BME280;66401;42.016;21.454;2023-11-22T04:20:52;97568.72;;;6.72;99.26
62789;BME280;66401;42.016;21.454;2023-11-22T04:23:18;97569.81;;;6.63;100.00
62789;BME280;66401;42.016;21.454;2023-11-22T04:25:43;97567.13;;;6.71;100.00
62789;BME280;66401;42.016;21.454;2023-11-22T04:28:09;97567.19;;;6.77;99.72
62789;BME280;66401;42.016;21.454;2023-11-22T04:30:35;97572.72;;;6.74;100.00
62789;BME280;66401;42.016;21.454;2023-11-22T04:33:01;97565.41;;;6.78;99.85
62789;BME280;66401;42.016;21.454;2023-11-22T04:35:27;97560.06;;;6.79;100.00
62789;BME280;66401;42.016;21.454;2023-11-22T04:37:53;97552.47;;;6.78;99.77
62789;BME280;66401;42.016;21.454;2023-11-22T04:40:20;97564.53;;;6.92;99.18
62789;BME280;66401;42.016;21.454;2023-11-22T04:42:46;97562.81;;;6.78;100.00
62789;BME280;66401;42.016;21.454;2023-11-22T04:45:12;97569.28;;;6.88;100.00
62789;BME280;66401;42.016;21.454;2023-11-22T04:47:38;97563.50;;;6.86;100.00
62789;BME280;66401;42.016;21.454;2023-11-22T04:50:04;97568.91;;;6.92;99.35
62789;BME280;66401;42.016;21.454;2023-11-22T04:52:29;97572.19;;;7.00;99.18
62789;BME280;66401;42.016;21.454;2023-11-22T04:54:55;97572.56;;;6.97;99.86
62789;BME280;66401;42.016;21.454;2023-11-22T04:57:21;97589.25;;;6.95;99.61
62789;BME280;66401;42.016;21.454;2023-11-22T04:59:46;97576.91;;;6.75;99.54
62789;BME280;66401;42.016;21.454;2023-11-22T05:02:12;97592.03;;;6.93;99.79
62789;BME280;66401;42.016;21.454;2023-11-22T05:04:37;97593.88;;;6.78;99.88
62789;BME280;66401;42.016;21.454;2023-11-22T05:07:03;97597.97;;;6.87;98.63
62789;BME280;66401;42.016;21.454;2023-11-22T05:09:28;97588.34;;;6.81;98.76
62789;BME280;66401;42.016;21.454;2023-11-22T05:11:54;97605.28;;;6.83;99.40
62789;BME280;66401;42.016;21.454;2023-11-22T05:14:19;97611.69;;;6.66;99.63
62789;BME280;66401;42.016;21.454;2023-11-22T05:16:45;97610.50;;;6.32;100.00
62789;BME280;66401;42.016;21.454;2023-11-22T05:19:10;97605.34;;;6.54;100.00
62789;BME280;66401;42.016;21.454;2023-11-22T05:21:36;97614.03;;;6.46;100.00
62789;BME280;66401;42.016;21.454;2023-11-22T05:24:01;97606.81;;;6.56;100.00
62789;BME280;66401;42.016;21.454;2023-11-22T05:26:27;97600.94;;;6.48;100.00
62789;BME280;66401;42.016;21.454;2023-11-22T05:28:53;97620.75;;;6.26;100.00
62789;BME280;66401;42.016;21.454;2023-11-22T05:31:21;97615.75;;;6.39;100.00
62789;BME280;66401;42.016;21.454;2023-11-22T05:33:48;97631.59;;;6.36;100.00
62789;BME280;66401;42.016;21.454;2023-11-22T05:36:13;97625.34;;;6.45;100.00
62789;BME280;66401;42.016;21.454;2023-11-22T05:38:41;97623.47;;;6.54;100.00
62789;BME280;66401;42.016;21.454;2023-11-22T05:41:08;97626.03;;;6.69;100.00
62789;BME280;66401;42.016;21.454;2023-11-22T05:43:33;97624.94;;;6.78;100.00
62789;BME280;66401;42.016;21.454;2023-11-22T05:46:05;97626.03;;;6.69;100.00
62789;BME280;66401;42.016;21.454;2023-11-22T05:48:30;97611.00;;;6.57;100.00
62789;BME280;66401;42.016;21.454;2023-11-22T05:50:55;97636.00;;;6.86;100.00
62789;BME280;66401;42.016;21.454;2023-11-22T05:53:21;97618.72;;;6.94;100.00
62789;BME280;66401;42.016;21.454;2023-11-22T05:55:50;97633.94;;;7.03;100.00
62789;BME280;66401;42.016;21.454;2023-11-22T05:58:16;97630.34;;;6.83;100.00
62789;BME280;66401;42.016;21.454;2023-11-22T06:00:45;97648.97;;;6.93;100.00
62789;BME280;66401;42.016;21.454;2023-11-22T06:03:12;97638.63;;;6.93;100.00
62789;BME280;66401;42.016;21.454;2023-11-22T06:05:38;97634.03;;;6.74;100.00
62789;BME280;66401;42.016;21.454;2023-11-22T06:08:04;97653.69;;;6.68;100.00
62789;BME280;66401;42.016;21.454;2023-11-22T06:10:29;97653.72;;;6.53;100.00
62789;BME280;66401;42.016;21.454;2023-11-22T06:12:55;97643.22;;;6.40;100.00
62789;BME280;66401;42.016;21.454;2023-11-22T06:15:21;97654.59;;;6.60;100.00
62789;BME280;66401;42.016;21.454;2023-11-22T06:17:48;97655.22;;;6.63;100.00
62789;BME280;66401;42.016;21.454;2023-11-22T06:20:16;97653.59;;;6.76;100.00
62789;BME280;66401;42.016;21.454;2023-11-22T06:22:42;97646.97;;;6.74;100.00
62789;BME280;66401;42.016;21.454;2023-11-22T06:25:14;97668.56;;;6.81;100.00
62789;BME280;66401;42.016;21.454;2023-11-22T06:27:39;97653.38;;;6.27;100.00
62789;BME280;66401;42.016;21.454;2023-11-22T06:30:06;97672.09;;;6.58;100.00
62789;BME280;66401;42.016;21.454;2023-11-22T06:32:32;97676.81;;;6.55;100.00
62789;BME280;66401;42.016;21.454;2023-11-22T06:35:00;97677.28;;;6.58;100.00
62789;BME280;66401;42.016;21.454;2023-11-22T06:37:26;97664.25;;;6.67;100.00
62789;BME280;66401;42.016;21.454;2023-11-22T06:39:52;97676.72;;;6.78;100.00
62789;BME280;66401;42.016;21.454;2023-11-22T06:42:18;97691.81;;;6.59;100.00
62789;BME280;66401;42.016;21.454;2023-11-22T06:44:46;97690.47;;;6.64;100.00
62789;BME280;66401;42.016;21.454;2023-11-22T06:47:15;97687.09;;;6.34;100.00
62789;BME280;66401;42.016;21.454;2023-11-22T06:49:40;97694.94;;;6.40;100.00
62789;BME280;66401;42.016;21.454;2023-11-22T06:52:06;97682.09;;;6.32;100.00
62789;BME280;66401;42.016;21.454;2023-11-22T06:54:31;97692.97;;;6.42;100.00
62789;BME280;66401;42.016;21.454;2023-11-22T06:56:57;97692.06;;;6.65;100.00
62789;BME280;66401;42.016;21.454;2023-11-22T06:59:22;97688.84;;;6.77;100.00
62789;BME280;66401;42.016;21.454;2023-11-22T07:01:48;97696.66;;;6.84;100.00
62789;BME280;66401;42.016;21.454;2023-11-22T07:04:14;97700.91;;;6.70;100.00
62789;BME280;66401;42.016;21.454;2023-11-22T07:06:39;97697.19;;;6.94;100.00
62789;BME280;66401;42.016;21.454;2023-11-22T07:09:05;97700.53;;;7.09;100.00
62789;BME280;66401;42.016;21.454;2023-11-22T07:11:31;97700.75;;;6.93;100.00
62789;BME280;66401;42.016;21.454;2023-11-22T07:13:56;97702.00;;;6.97;100.00
62789;BME280;66401;42.016;21.454;2023-11-22T07:16:23;97705.41;;;6.98;100.00
62789;BME280;66401;42.016;21.454;2023-11-22T07:18:50;97719.44;;;7.25;100.00
62789;BME280;66401;42.016;21.454;2023-11-22T07:21:16;97719.19;;;7.41;100.00
62789;BME280;66401;42.016;21.454;2023-11-22T07:23:42;97708.09;;;7.47;100.00
62789;BME280;66401;42.016;21.454;2023-11-22T07:26:10;97716.59;;;7.62;100.00
62789;BME280;66401;42.016;21.454;2023-11-22T07:28:36;97712.03;;;7.64;100.00
62789;BME280;66401;42.016;21.454;2023-11-22T07:31:02;97726.41;;;7.67;100.00
62789;BME280;66401;42.016;21.454;2023-11-22T07:33:27;97729.81;;;7.67;100.00
62789;BME280;66401;42.016;21.454;2023-11-22T07:35:53;97733.13;;;7.61;100.00
62789;BME280;66401;42.016;21.454;2023-11-22T07:38:19;97723.44;;;7.27;100.00
62789;BME280;66401;42.016;21.454;2023-11-22T07:40:45;97725.44;;;7.25;100.00
62789;BME280;66401;42.016;21.454;2023-11-22T07:43:10;97732.09;;;7.34;100.00
62789;BME280;66401;42.016;21.454;2023-11-22T07:45:36;97736.59;;;7.26;100.00
62789;BME280;66401;42.016;21.454;2023-11-22T07:48:06;97747.34;;;7.44;100.00
62789;BME280;66401;42.016;21.454;2023-11-22T07:50:31;97739.88;;;7.34;100.00
62789;BME280;66401;42.016;21.454;2023-11-22T07:52:57;97729.56;;;7.41;100.00
62789;BME280;66401;42.016;21.454;2023-11-22T07:55:23;97722.03;;;7.46;100.00
62789;BME280;66401;42.016;21.454;2023-11-22T07:57:49;97732.81;;;7.50;100.00
62789;BME280;66401;42.016;21.454;2023-11-22T08:00:16;97731.59;;;7.45;100.00
62789;BME280;66401;42.016;21.454;2023-11-22T08:02:45;97736.38;;;7.63;100.00
62789;BME280;66401;42.016;21.454;2023-11-22T08:05:11;97760.22;;;7.80;100.00
62789;BME280;66401;42.016;21.454;2023-11-22T08:07:38;97754.50;;;7.85;100.00
62789;BME280;66401;42.016;21.454;2023-11-22T08:10:07;97753.56;;;7.92;100.00
62789;BME280;66401;42.016;21.454;2023-11-22T08:12:43;97760.38;;;8.00;100.00
62789;BME280;66401;42.016;21.454;2023-11-22T08:15:10;97754.84;;;8.03;100.00
62789;BME280;66401;42.016;21.454;2023-11-22T08:17:40;97740.50;;;8.07;100.00
62789;BME280;66401;42.016;21.454;2023-11-22T08:20:06;97744.22;;;7.98;100.00
62789;BME280;66401;42.016;21.454;2023-11-22T08:22:34;97757.19;;;7.98;100.00
62789;BME280;66401;42.016;21.454;2023-11-22T08:25:04;97756.44;;;8.04;100.00
62789;BME280;66401;42.016;21.454;2023-11-22T08:27:30;97742.69;;;8.10;100.00
62789;BME280;66401;42.016;21.454;2023-11-22T08:29:57;97756.91;;;8.14;100.00
62789;BME280;66401;42.016;21.454;2023-11-22T08:32:22;97737.69;;;8.02;100.00
62789;BME280;66401;42.016;21.454;2023-11-22T08:34:50;97738.81;;;7.93;100.00
62789;BME280;66401;42.016;21.454;2023-11-22T08:37:17;97743.03;;;7.72;100.00
62789;BME280;66401;42.016;21.454;2023-11-22T08:39:42;97719.75;;;7.36;100.00
62789;BME280;66401;42.016;21.454;2023-11-22T08:42:08;97729.63;;;7.47;100.00
62789;BME280;66401;42.016;21.454;2023-11-22T08:44:37;97745.34;;;7.89;100.00
62789;BME280;66401;42.016;21.454;2023-11-22T08:47:03;97764.34;;;7.96;100.00
62789;BME280;66401;42.016;21.454;2023-11-22T08:49:29;97780.16;;;7.80;100.00
62789;BME280;66401;42.016;21.454;2023-11-22T08:51:58;97765.72;;;7.70;100.00
62789;BME280;66401;42.016;21.454;2023-11-22T08:54:26;97754.88;;;7.82;100.00
62789;BME280;66401;42.016;21.454;2023-11-22T08:56:55;97759.56;;;7.93;100.00
62789;BME280;66401;42.016;21.454;2023-11-22T08:59:23;97787.81;;;7.88;100.00
62789;BME280;66401;42.016;21.454;2023-11-22T09:01:49;97776.81;;;8.07;100.00
62789;BME280;66401;42.016;21.454;2023-11-22T09:04:14;97761.03;;;7.81;100.00
62789;BME280;66401;42.016;21.454;2023-11-22T09:06:41;97765.53;;;7.93;100.00
62789;BME280;66401;42.016;21.454;2023-11-22T09:09:07;97770.75;;;8.00;100.00
62789;BME280;66401;42.016;21.454;2023-11-22T09:11:33;97771.06;;;7.90;100.00
62789;BME280;66401;42.016;21.454;2023-11-22T09:14:00;97737.84;;;7.72;100.00
62789;BME280;66401;42.016;21.454;2023-11-22T09:16:35;97767.69;;;8.11;100.00
62789;BME280;66401;42.016;21.454;2023-11-22T09:19:00;97780.47;;;8.13;100.00
62789;BME280;66401;42.016;21.454;2023-11-22T09:21:26;97742.25;;;7.79;100.00
62789;BME280;66401;42.016;21.454;2023-11-22T09:23:51;97756.31;;;7.91;100.00
62789;BME280;66401;42.016;21.454;2023-11-22T09:26:17;97783.88;;;7.92;100.00
62789;BME280;66401;42.016;21.454;2023-11-22T09:28:42;97785.59;;;8.06;100.00
62789;BME280;66401;42.016;21.454;2023-11-22T09:31:08;97776.06;;;8.13;100.00
62789;BME280;66401;42.016;21.454;2023-11-22T09:33:34;97785.66;;;8.13;100.00
62789;BME280;66401;42.016;21.454;2023-11-22T09:35:59;97772.50;;;7.71;100.00
62789;BME280;66401;42.016;21.454;2023-11-22T09:38:25;97762.66;;;7.82;100.00
62789;BME280;66401;42.016;21.454;2023-11-22T09:40:50;97781.91;;;7.94;100.00
62789;BME280;66401;42.016;21.454;2023-11-22T09:43:18;97765.75;;;7.98;100.00
62789;BME280;66401;42.016;21.454;2023-11-22T09:45:44;97785.19;;;8.09;100.00
62789;BME280;66401;42.016;21.454;2023-11-22T09:48:21;97779.34;;;8.00;100.00
62789;BME280;66401;42.016;21.454;2023-11-22T09:51:15;97775.59;;;8.03;100.00
62789;BME280;66401;42.016;21.454;2023-11-22T09:53:58;97787.94;;;8.29;100.00
62789;BME280;66401;42.016;21.454;2023-11-22T09:56:27;97778.00;;;8.32;100.00
62789;BME280;66401;42.016;21.454;2023-11-22T09:58:55;97770.72;;;8.43;100.00
62789;BME280;66401;42.016;21.454;2023-11-22T10:01:23;97768.19;;;8.49;100.00
62789;BME280;66401;42.016;21.454;2023-11-22T10:03:49;97769.94;;;8.49;100.00
62789;BME280;66401;42.016;21.454;2023-11-22T10:06:16;97769.19;;;8.55;100.00
62789;BME280;66401;42.016;21.454;2023-11-22T10:08:43;97764.53;;;8.78;100.00
62789;BME280;66401;42.016;21.454;2023-11-22T10:11:10;97768.94;;;8.84;100.00
62789;BME280;66401;42.016;21.454;2023-11-22T10:13:36;97776.78;;;8.91;100.00
62789;BME280;66401;42.016;21.454;2023-11-22T10:16:10;97757.00;;;8.90;100.00
62789;BME280;66401;42.016;21.454;2023-11-22T10:18:43;97738.59;;;8.78;100.00
62789;BME280;66401;42.016;21.454;2023-11-22T10:21:23;97773.44;;;9.04;100.00
62789;BME280;66401;42.016;21.454;2023-11-22T10:23:53;97762.66;;;9.07;100.00
62789;BME280;66401;42.016;21.454;2023-11-22T10:26:44;97785.22;;;9.06;100.00
62789;BME280;66401;42.016;21.454;2023-11-22T10:29:12;97791.00;;;9.02;100.00
62789;BME280;66401;42.016;21.454;2023-11-22T10:31:38;97799.81;;;9.01;100.00
62789;BME280;66401;42.016;21.454;2023-11-22T10:34:04;97806.03;;;9.13;100.00
62789;BME280;66401;42.016;21.454;2023-11-22T10:36:29;97794.41;;;9.02;100.00
62789;BME280;66401;42.016;21.454;2023-11-22T10:38:54;97780.19;;;8.92;100.00
62789;BME280;66401;42.016;21.454;2023-11-22T10:41:21;97791.41;;;8.99;100.00
62789;BME280;66401;42.016;21.454;2023-11-22T10:43:51;97771.38;;;8.93;100.00
62789;BME280;66401;42.016;21.454;2023-11-22T10:46:19;97764.81;;;8.97;100.00
62789;BME280;66401;42.016;21.454;2023-11-22T10:48:48;97789.25;;;9.09;100.00
62789;BME280;66401;42.016;21.454;2023-11-22T10:51:14;97761.06;;;9.12;100.00
62789;BME280;66401;42.016;21.454;2023-11-22T10:53:49;97791.75;;;9.43;100.00
62789;BME280;66401;42.016;21.454;2023-11-22T10:56:19;97798.78;;;9.50;100.00
62789;BME280;66401;42.016;21.454;2023-11-22T10:58:55;97787.56;;;9.42;100.00
62789;BME280;66401;42.016;21.454;2023-11-22T11:01:24;97804.00;;;9.63;100.00
62789;BME280;66401;42.016;21.454;2023-11-22T11:04:01;97800.03;;;9.67;100.00
62789;BME280;66401;42.016;21.454;2023-11-22T11:06:32;97799.63;;;9.70;100.00
62789;BME280;66401;42.016;21.454;2023-11-22T11:09:04;97793.25;;;9.79;100.00
62789;BME280;66401;42.016;21.454;2023-11-22T11:11:37;97806.66;;;9.76;100.00
62789;BME280;66401;42.016;21.454;2023-11-22T11:14:05;97814.47;;;9.76;100.00
62789;BME280;66401;42.016;21.454;2023-11-22T11:16:34;97815.66;;;9.87;100.00
62789;BME280;66401;42.016;21.454;2023-11-22T11:19:03;97807.66;;;9.88;100.00
62789;BME280;66401;42.016;21.454;2023-11-22T11:21:30;97802.06;;;9.78;100.00
62789;BME280;66401;42.016;21.454;2023-11-22T11:23:58;97798.84;;;9.89;100.00
62789;BME280;66401;42.016;21.454;2023-11-22T11:26:28;97785.25;;;9.94;100.00
62789;BME280;66401;42.016;21.454;2023-11-22T11:28:54;97780.66;;;10.09;100.00
62789;BME280;66401;42.016;21.454;2023-11-22T11:31:23;97783.47;;;10.14;100.00
62789;BME280;66401;42.016;21.454;2023-11-22T11:36:26;97800.69;;;10.22;100.00
62789;BME280;66401;42.016;21.454;2023-11-22T11:38:54;97799.13;;;10.34;100.00
62789;BME280;66401;42.016;21.454;2023-11-22T11:41:28;97805.72;;;10.30;100.00
62789;BME280;66401;42.016;21.454;2023-11-22T11:44:01;97805.31;;;10.33;100.00
62789;BME280;66401;42.016;21.454;2023-11-22T11:46:28;97808.50;;;10.42;100.00
62789;BME280;66401;42.016;21.454;2023-11-22T11:48:55;97800.50;;;10.43;100.00
62789;BME280;66401;42.016;21.454;2023-11-22T11:51:25;97781.88;;;10.26;100.00
62789;BME280;66401;42.016;21.454;2023-11-22T11:53:51;97771.69;;;10.25;100.00
62789;BME280;66401;42.016;21.454;2023-11-22T11:56:17;97795.28;;;10.50;100.00
62789;BME280;66401;42.016;21.454;2023-11-22T11:58:44;97785.91;;;10.42;100.00
62789;BME280;66401;42.016;21.454;2023-11-22T12:01:13;97801.50;;;10.42;100.00
62789;BME280;66401;42.016;21.454;2023-11-22T12:03:40;97793.28;;;10.32;100.00
62789;BME280;66401;42.016;21.454;2023-11-22T12:06:09;97787.91;;;10.34;100.00
62789;BME280;66401;42.016;21.454;2023-11-22T12:08:35;97773.25;;;9.99;100.00
62789;BME280;66401;42.016;21.454;2023-11-22T12:11:04;97776.44;;;10.01;100.00
62789;BME280;66401;42.016;21.454;2023-11-22T12:13:31;97800.06;;;10.20;100.00
62789;BME280;66401;42.016;21.454;2023-11-22T12:15:58;97821.53;;;10.35;100.00
62789;BME280;66401;42.016;21.454;2023-11-22T12:18:23;97820.94;;;10.26;100.00
62789;BME280;66401;42.016;21.454;2023-11-22T12:20:59;97835.56;;;10.34;100.00
62789;BME280;66401;42.016;21.454;2023-11-22T12:23:26;97817.28;;;9.94;100.00
62789;BME280;66401;42.016;21.454;2023-11-22T12:25:56;97811.69;;;10.04;100.00
62789;BME280;66401;42.016;21.454;2023-11-22T12:28:29;97822.09;;;9.97;100.00
62789;BME280;66401;42.016;21.454;2023-11-22T12:30:55;97840.69;;;9.94;100.00
62789;BME280;66401;42.016;21.454;2023-11-22T12:33:21;97848.28;;;9.89;100.00
62789;BME280;66401;42.016;21.454;2023-11-22T12:35:47;97822.06;;;9.78;100.00
62789;BME280;66401;42.016;21.454;2023-11-22T12:38:14;97832.66;;;9.76;100.00
62789;BME280;66401;42.016;21.454;2023-11-22T12:40:45;97862.88;;;9.90;100.00
62789;BME280;66401;42.016;21.454;2023-11-22T12:43:13;97853.31;;;9.97;100.00
62789;BME280;66401;42.016;21.454;2023-11-22T12:45:39;97854.94;;;10.05;100.00
62789;BME280;66401;42.016;21.454;2023-11-22T12:48:22;97852.72;;;10.09;100.00
62789;BME280;66401;42.016;21.454;2023-11-22T12:50:52;97849.28;;;10.01;100.00
62789;BME280;66401;42.016;21.454;2023-11-22T12:53:19;97859.53;;;10.16;100.00